Aviation Digital Data Service (ADDS)

Output produced by METARs form (1040 UTC 11 February 2016)
found at http://aviationweather.gov/adds/metars/
 
KSLK 111019Z 1110/1206 25005KT P6SM VCSH FEW015 OVC040 
     TEMPO 1110/1112 2SM -SN BR BKN015 
     FM111500 25009G17KT 3SM -SN BR BKN025 OVC040 
     FM112000 26009KT P6SM VCSH BKN030 
     FM120400 28008KT P6SM BKN035 
     FM120500 28007KT P6SM SCT040